createdAt,value
2022-10-20T00:01:43.101Z,12.56
2022-10-20T00:05:43.085Z,12.48
2022-10-20T00:09:41.923Z,12.51
2022-10-20T00:13:47.258Z,12.26
2022-10-20T00:17:46.611Z,11.74
2022-10-20T00:21:46.315Z,11.67
2022-10-20T00:25:46.390Z,11.24
2022-10-20T00:29:50.514Z,11.59
2022-10-20T00:33:49.994Z,11.47
2022-10-20T00:37:49.715Z,11.64
2022-10-20T00:41:48.799Z,11.58
2022-10-20T00:45:56.561Z,12.01
2022-10-20T00:50:10.612Z,12.01
2022-10-20T00:54:12.426Z,12.01
2022-10-20T00:58:12.161Z,12.10
2022-10-20T01:02:14.237Z,11.88
2022-10-20T01:10:15.882Z,11.79
2022-10-20T01:14:30.043Z,11.57
2022-10-20T01:18:41.895Z,11.67
2022-10-20T01:23:08.735Z,11.44
2022-10-20T01:27:39.058Z,11.27
2022-10-20T01:31:45.833Z,11.42
2022-10-20T01:35:57.375Z,11.26
2022-10-20T01:40:04.084Z,11.26
2022-10-20T01:44:10.638Z,11.53
2022-10-20T01:48:13.961Z,11.26
2022-10-20T01:52:14.178Z,11.37
2022-10-20T01:56:18.668Z,11.41
2022-10-20T02:00:20.578Z,11.31
2022-10-20T02:04:27.294Z,11.08
2022-10-20T02:08:33.032Z,10.87
2022-10-20T02:12:37.940Z,10.73
2022-10-20T02:16:50.014Z,10.74
2022-10-20T02:20:52.591Z,10.93
2022-10-20T02:24:52.448Z,10.94
2022-10-20T02:28:57.414Z,11.00
2022-10-20T02:32:59.209Z,10.90
2022-10-20T02:37:00.323Z,10.71
2022-10-20T02:40:59.430Z,10.76
2022-10-20T02:45:02.125Z,10.79
2022-10-20T02:49:03.915Z,10.75
2022-10-20T02:53:03.833Z,10.60
2022-10-20T02:57:03.547Z,10.39
2022-10-20T03:01:02.742Z,10.16
2022-10-20T03:05:04.565Z,10.42
2022-10-20T03:09:06.458Z,10.48
2022-10-20T03:13:13.281Z,10.87
2022-10-20T03:17:17.412Z,10.57
2022-10-20T03:21:18.918Z,10.33
2022-10-20T03:25:18.726Z,10.28
2022-10-20T03:29:20.036Z,9.99
2022-10-20T03:33:19.641Z,9.48
2022-10-20T03:37:21.648Z,9.61
2022-10-20T03:41:20.675Z,9.63
2022-10-20T03:45:20.049Z,9.17
2022-10-20T03:49:19.275Z,9.09
2022-10-20T03:53:21.040Z,8.88
2022-10-20T03:57:20.855Z,9.18
2022-10-20T04:01:23.893Z,9.40
2022-10-20T04:05:27.076Z,9.23
2022-10-20T04:09:29.049Z,9.07
2022-10-20T04:13:28.638Z,9.05
2022-10-20T04:17:28.145Z,8.76
2022-10-20T04:21:27.844Z,8.68
2022-10-20T04:25:29.151Z,8.75
2022-10-20T04:29:28.897Z,9.20
2022-10-20T04:33:28.741Z,9.68
2022-10-20T04:37:28.553Z,10.20
2022-10-20T04:41:29.986Z,10.60
2022-10-20T04:45:30.114Z,10.90
2022-10-20T04:49:29.907Z,11.00
2022-10-20T04:53:29.626Z,10.91
2022-10-20T04:57:31.513Z,10.56
2022-10-20T05:01:33.350Z,10.76
2022-10-20T05:05:32.597Z,10.70
2022-10-20T05:09:32.703Z,11.00
2022-10-20T05:13:34.699Z,11.21
2022-10-20T05:17:34.293Z,11.24
2022-10-20T05:21:34.207Z,11.29
2022-10-20T05:25:37.198Z,11.33
2022-10-20T05:29:39.249Z,11.39
2022-10-20T05:33:38.890Z,11.36
2022-10-20T05:37:38.585Z,11.19
2022-10-20T05:41:39.184Z,10.84
2022-10-20T05:45:41.215Z,10.98
2022-10-20T05:49:40.918Z,11.32
2022-10-20T05:53:41.172Z,11.56
2022-10-20T05:57:40.278Z,12.15
2022-10-20T06:01:47.627Z,13.09
2022-10-20T06:05:47.698Z,13.86
2022-10-20T06:09:46.979Z,14.29
2022-10-20T06:13:51.850Z,14.41
2022-10-20T06:17:55.727Z,14.68
2022-10-20T06:21:55.988Z,14.78
2022-10-20T06:25:55.774Z,15.04
2022-10-20T06:29:54.619Z,15.51
2022-10-20T06:33:56.732Z,15.70
2022-10-20T06:37:57.818Z,15.28
2022-10-20T06:41:57.486Z,15.17
2022-10-20T06:46:01.236Z,15.38
2022-10-20T06:50:03.405Z,15.88
2022-10-20T06:54:03.395Z,16.19
2022-10-20T06:58:03.438Z,15.96
2022-10-20T07:02:03.999Z,15.83
2022-10-20T07:06:06.645Z,15.84
2022-10-20T07:10:06.691Z,15.31
2022-10-20T07:14:07.455Z,15.31
2022-10-20T07:18:06.697Z,14.92
2022-10-20T07:22:08.524Z,14.57
2022-10-20T07:26:09.823Z,15.06
2022-10-20T07:30:10.683Z,15.26
2022-10-20T07:34:25.142Z,15.59
2022-10-20T07:38:33.277Z,15.45
2022-10-20T07:42:33.688Z,15.49
2022-10-20T07:46:33.980Z,15.47
2022-10-20T07:50:35.271Z,15.29
2022-10-20T07:54:37.194Z,15.18
2022-10-20T07:58:36.997Z,14.53
2022-10-20T08:02:36.774Z,14.65
2022-10-20T08:06:39.259Z,14.80
2022-10-20T08:10:41.627Z,15.14
2022-10-20T08:14:40.686Z,15.21
2022-10-20T08:19:01.116Z,15.42
2022-10-20T08:23:00.820Z,15.42
2022-10-20T08:27:02.722Z,15.17
2022-10-20T08:31:04.485Z,15.79
2022-10-20T08:35:04.485Z,16.07
2022-10-20T08:39:06.182Z,16.04
2022-10-20T08:43:07.841Z,16.11
2022-10-20T08:47:19.298Z,16.07
2022-10-20T08:51:21.761Z,15.82
2022-10-20T08:55:28.341Z,16.19
2022-10-20T08:59:36.564Z,16.16
2022-10-20T09:03:38.559Z,16.26
2022-10-20T09:07:40.701Z,16.25
2022-10-20T09:11:42.270Z,16.70
2022-10-20T09:15:44.588Z,16.29
2022-10-20T09:19:48.597Z,16.33
2022-10-20T09:27:51.280Z,16.91
2022-10-20T09:31:56.718Z,17.02
2022-10-20T09:35:57.319Z,17.10
2022-10-20T09:40:00.352Z,16.96
2022-10-20T09:44:03.018Z,16.86
2022-10-20T09:48:08.460Z,16.74
2022-10-20T09:52:24.993Z,16.95
2022-10-20T09:56:34.630Z,17.25
2022-10-20T10:00:38.355Z,17.35
2022-10-20T10:04:42.970Z,17.47
2022-10-20T10:08:47.868Z,17.24
2022-10-20T10:12:53.915Z,17.31
2022-10-20T10:16:53.197Z,17.77
2022-10-20T10:21:03.225Z,17.38
2022-10-20T10:25:04.893Z,17.26
2022-10-20T10:29:05.851Z,17.61
2022-10-20T10:33:26.197Z,17.30
2022-10-20T10:37:33.917Z,17.73
2022-10-20T10:42:02.456Z,18.07
2022-10-20T10:46:07.255Z,17.68
2022-10-20T10:50:27.970Z,17.56
2022-10-20T10:54:37.651Z,17.56
2022-10-20T10:58:47.303Z,17.51
2022-10-20T11:03:18.311Z,17.60
2022-10-20T11:07:31.767Z,18.01
2022-10-20T11:11:46.130Z,17.87
2022-10-20T11:15:57.062Z,18.01
2022-10-20T11:20:14.293Z,18.02
2022-10-20T11:24:35.224Z,18.14
2022-10-20T11:28:44.170Z,18.24
2022-10-20T11:32:48.620Z,18.35
2022-10-20T11:37:07.002Z,18.70
2022-10-20T11:41:09.389Z,18.31
2022-10-20T11:45:30.521Z,18.24
2022-10-20T11:49:33.839Z,18.15
2022-10-20T11:53:59.295Z,18.57
2022-10-20T11:58:17.589Z,18.70
2022-10-20T12:03:03.077Z,18.49
2022-10-20T12:07:32.815Z,18.40
2022-10-20T12:11:37.290Z,18.97
2022-10-20T12:15:49.068Z,18.94
2022-10-20T12:20:58.168Z,19.01
2022-10-20T12:25:42.004Z,18.85
2022-10-20T12:30:06.648Z,18.73
2022-10-20T12:34:08.835Z,18.47
2022-10-20T12:38:18.788Z,18.81
2022-10-20T12:42:27.381Z,18.55
2022-10-20T12:46:34.542Z,18.74
2022-10-20T12:50:38.720Z,18.78
2022-10-20T12:54:44.983Z,18.98
2022-10-20T12:59:24.167Z,18.64
2022-10-20T13:03:49.161Z,18.88
2022-10-20T13:08:06.666Z,18.86
2022-10-20T13:12:06.970Z,18.72
2022-10-20T13:16:27.958Z,18.88
2022-10-20T13:20:51.632Z,18.87
2022-10-20T13:24:53.601Z,18.97
2022-10-20T13:28:58.547Z,18.85
2022-10-20T13:37:43.962Z,18.53
2022-10-20T13:41:54.020Z,18.24
2022-10-20T13:46:19.796Z,18.16
2022-10-20T13:50:24.586Z,18.05
2022-10-20T13:54:30.140Z,17.86
2022-10-20T13:58:29.960Z,17.71
2022-10-20T14:02:31.824Z,17.84
2022-10-20T14:06:33.687Z,17.67
2022-10-20T14:10:44.415Z,17.67
2022-10-20T14:14:47.371Z,17.69
2022-10-20T14:19:02.765Z,17.64
2022-10-20T14:23:04.305Z,17.46
2022-10-20T14:27:08.141Z,17.57
2022-10-20T14:31:08.407Z,17.43
2022-10-20T14:35:22.974Z,17.35
2022-10-20T14:39:32.236Z,17.34
2022-10-20T14:43:40.790Z,17.36
2022-10-20T14:47:43.382Z,17.17
2022-10-20T14:51:47.365Z,17.13
2022-10-20T14:55:47.408Z,17.14
2022-10-20T15:00:02.189Z,17.00
2022-10-20T15:04:15.495Z,16.80
2022-10-20T15:08:26.454Z,16.74
2022-10-20T15:12:33.568Z,16.74
2022-10-20T15:16:43.090Z,16.52
2022-10-20T15:20:43.118Z,16.43
2022-10-20T15:24:42.996Z,16.40
2022-10-20T15:28:46.445Z,16.34
2022-10-20T15:32:48.697Z,15.99
2022-10-20T15:36:50.343Z,16.34
2022-10-20T15:40:51.138Z,16.24
2022-10-20T15:44:50.999Z,16.16
2022-10-20T15:48:52.445Z,16.14
2022-10-20T15:52:52.097Z,16.11
2022-10-20T15:56:52.137Z,15.96
2022-10-20T16:00:52.391Z,15.88
2022-10-20T16:04:54.400Z,15.91
2022-10-20T16:08:53.917Z,15.62
2022-10-20T16:12:54.093Z,15.60
2022-10-20T16:16:53.387Z,15.38
2022-10-20T16:20:55.349Z,15.35
2022-10-20T16:24:55.283Z,15.28
2022-10-20T16:28:56.253Z,15.09
2022-10-20T16:32:55.860Z,14.84
2022-10-20T16:36:59.698Z,14.56
2022-10-20T16:41:03.569Z,14.92
2022-10-20T16:45:03.623Z,15.13
2022-10-20T16:49:02.520Z,15.18
2022-10-20T16:53:04.660Z,15.11
2022-10-20T16:57:06.661Z,14.82
2022-10-20T17:01:15.266Z,14.64
2022-10-20T17:05:14.502Z,14.46
2022-10-20T17:09:17.248Z,14.30
2022-10-20T17:13:16.548Z,14.23
2022-10-20T17:17:16.538Z,13.98
2022-10-20T17:21:17.291Z,13.68
2022-10-20T17:25:21.966Z,13.46
2022-10-20T17:29:25.180Z,13.20
2022-10-20T17:33:31.171Z,13.07
2022-10-20T17:37:33.000Z,12.93
2022-10-20T17:41:35.337Z,13.05
2022-10-20T17:45:38.066Z,13.13
2022-10-20T17:49:37.603Z,13.25
2022-10-20T17:53:40.042Z,13.30
2022-10-20T17:57:44.671Z,13.17
2022-10-20T18:01:45.822Z,13.20
2022-10-20T18:05:45.930Z,12.90
2022-10-20T18:09:46.003Z,12.93
2022-10-20T18:13:48.166Z,12.89
2022-10-20T18:17:47.829Z,12.72
2022-10-20T18:21:48.974Z,12.51
2022-10-20T18:25:48.765Z,12.13
2022-10-20T18:29:53.366Z,12.23
2022-10-20T18:33:56.027Z,12.16
2022-10-20T18:37:57.252Z,12.15
2022-10-20T18:41:57.009Z,12.14
2022-10-20T18:45:58.190Z,12.00
2022-10-20T18:49:58.175Z,11.96
2022-10-20T18:53:59.784Z,11.72
2022-10-20T18:57:59.496Z,11.86
2022-10-20T19:02:00.817Z,11.95
2022-10-20T19:06:08.909Z,12.00
2022-10-20T19:10:13.534Z,11.86
2022-10-20T19:14:26.736Z,12.28
2022-10-20T19:18:31.441Z,12.27
2022-10-20T19:22:30.579Z,12.25
2022-10-20T19:26:34.596Z,12.13
2022-10-20T19:30:36.952Z,11.91
2022-10-20T19:34:42.237Z,12.07
2022-10-20T19:45:00.938Z,12.07
2022-10-20T19:49:03.842Z,11.79
2022-10-20T19:53:05.182Z,11.77
2022-10-20T19:57:06.197Z,11.72
2022-10-20T20:01:11.242Z,11.69
2022-10-20T20:05:21.493Z,11.55
2022-10-20T20:09:23.174Z,11.41
2022-10-20T20:13:23.643Z,11.47
2022-10-20T20:17:23.265Z,11.51
2022-10-20T20:21:22.692Z,11.53
2022-10-20T20:25:24.428Z,11.56
2022-10-20T20:29:24.014Z,11.61
2022-10-20T20:33:23.538Z,11.64
2022-10-20T20:37:22.962Z,11.55
2022-10-20T20:41:25.707Z,11.56
2022-10-20T20:45:25.217Z,11.40
2022-10-20T20:49:24.412Z,11.39
2022-10-20T20:53:24.729Z,11.37
2022-10-20T20:57:26.582Z,11.29
2022-10-20T21:01:28.024Z,11.29
2022-10-20T21:05:27.712Z,11.40
2022-10-20T21:09:26.689Z,11.26
2022-10-20T21:13:28.393Z,10.87
2022-10-20T21:17:27.354Z,10.72
2022-10-20T21:21:28.662Z,10.51
2022-10-20T21:25:28.215Z,10.32
2022-10-20T21:29:29.509Z,10.47
2022-10-20T21:33:30.181Z,10.55
2022-10-20T21:37:30.414Z,10.56
2022-10-20T21:41:32.014Z,10.54
2022-10-20T21:45:33.620Z,10.57
2022-10-20T21:49:33.447Z,10.56
2022-10-20T21:53:32.993Z,10.59
2022-10-20T21:57:32.039Z,10.53
2022-10-20T22:01:33.449Z,10.43
2022-10-20T22:05:32.935Z,10.52
2022-10-20T22:09:32.560Z,10.52
2022-10-20T22:13:31.712Z,10.55
2022-10-20T22:17:33.243Z,10.70
2022-10-20T22:21:33.139Z,10.66
2022-10-20T22:25:32.562Z,10.66
2022-10-20T22:29:32.087Z,10.43
2022-10-20T22:33:33.414Z,10.50
2022-10-20T22:37:32.592Z,10.51
2022-10-20T22:41:32.263Z,10.40
2022-10-20T22:45:31.231Z,10.45
2022-10-20T22:49:32.773Z,10.48
2022-10-20T22:53:32.178Z,10.52
2022-10-20T22:57:31.615Z,10.54
2022-10-20T23:01:31.310Z,10.65
2022-10-20T23:05:32.890Z,10.69
2022-10-20T23:09:32.402Z,10.80
2022-10-20T23:13:31.513Z,10.93
2022-10-20T23:17:30.949Z,10.92
2022-10-20T23:21:32.437Z,10.76
2022-10-20T23:25:31.898Z,10.55
2022-10-20T23:29:31.211Z,10.61
2022-10-20T23:33:30.599Z,10.56
2022-10-20T23:37:32.294Z,10.50
2022-10-20T23:41:31.671Z,10.35
2022-10-20T23:45:34.052Z,10.23
2022-10-20T23:49:36.396Z,9.98
2022-10-20T23:53:37.666Z,9.71
2022-10-20T23:57:37.284Z,9.55
